createdAt,value
2023-02-04T00:00:15.742Z,60.18
2023-02-04T00:01:37.794Z,61.97
2023-02-04T00:02:40.979Z,63.44
2023-02-04T00:03:42.821Z,64.67
2023-02-04T00:04:44.734Z,64.66
2023-02-04T00:05:46.601Z,63.84
2023-02-04T00:06:48.613Z,62.67
2023-02-04T00:07:50.870Z,61.48
2023-02-04T00:08:53.084Z,60.51
2023-02-04T00:09:55.249Z,59.68
2023-02-04T00:10:57.530Z,58.79
2023-02-04T00:11:59.599Z,58.15
2023-02-04T00:13:01.810Z,58.59
2023-02-04T00:14:03.694Z,59.60
2023-02-04T00:15:06.213Z,60.99
2023-02-04T00:16:08.185Z,62.48
2023-02-04T00:17:13.210Z,64.01
2023-02-04T00:18:15.073Z,64.85
2023-02-04T00:19:17.224Z,64.49
2023-02-04T00:20:19.877Z,63.55
2023-02-04T00:21:21.724Z,62.50
2023-02-04T00:22:23.868Z,61.46
2023-02-04T00:23:25.624Z,60.44
2023-02-04T00:24:27.555Z,59.62
2023-02-04T00:25:29.705Z,58.68
2023-02-04T00:26:31.424Z,58.15
2023-02-04T00:27:33.474Z,58.77
2023-02-04T00:28:35.680Z,59.96
2023-02-04T00:29:37.507Z,61.45
2023-02-04T00:30:39.793Z,63.04
2023-02-04T00:31:41.859Z,64.56
2023-02-04T00:32:44.552Z,64.97
2023-02-04T00:33:47.167Z,64.40
2023-02-04T00:34:49.359Z,63.36
2023-02-04T00:35:51.296Z,62.25
2023-02-04T00:36:53.200Z,61.25
2023-02-04T00:37:56.538Z,60.39
2023-02-04T00:38:58.312Z,59.51
2023-02-04T00:40:00.326Z,58.55
2023-02-04T00:41:02.134Z,58.02
2023-02-04T00:42:05.714Z,58.68
2023-02-04T00:43:07.543Z,60.14
2023-02-04T00:44:09.530Z,61.73
2023-02-04T00:45:12.851Z,63.29
2023-02-04T00:46:14.875Z,64.77
2023-02-04T00:47:16.823Z,64.98
2023-02-04T00:48:18.715Z,64.33
2023-02-04T00:49:20.608Z,63.26
2023-02-04T00:50:23.601Z,62.23
2023-02-04T00:51:25.591Z,61.18
2023-02-04T00:52:27.509Z,60.31
2023-02-04T00:53:29.312Z,59.57
2023-02-04T00:54:32.516Z,58.76
2023-02-04T00:55:34.429Z,58.27
2023-02-04T00:56:36.368Z,58.91
2023-02-04T00:57:38.956Z,60.16
2023-02-04T00:58:40.801Z,61.52
2023-02-04T00:59:43.227Z,63.01
2023-02-04T01:00:45.594Z,64.60
2023-02-04T01:01:47.594Z,64.99
2023-02-04T01:02:49.654Z,64.47
2023-02-04T01:03:51.473Z,63.51
2023-02-04T01:04:53.358Z,62.46
2023-02-04T01:05:55.497Z,61.57
2023-02-04T01:06:57.349Z,60.63
2023-02-04T01:07:59.334Z,59.73
2023-02-04T01:09:01.959Z,59.16
2023-02-04T01:10:04.383Z,58.30
2023-02-04T01:11:06.434Z,58.39
2023-02-04T01:12:08.204Z,59.46
2023-02-04T01:13:10.121Z,60.88
2023-02-04T01:14:12.422Z,62.43
2023-02-04T01:15:14.507Z,64.10
2023-02-04T01:16:16.645Z,65.01
2023-02-04T01:17:19.952Z,64.80
2023-02-04T01:18:21.893Z,63.85
2023-02-04T01:19:23.801Z,62.69
2023-02-04T01:20:25.997Z,61.59
2023-02-04T01:21:28.031Z,60.72
2023-02-04T01:22:30.301Z,59.93
2023-02-04T01:23:32.486Z,59.09
2023-02-04T01:24:34.443Z,58.18
2023-02-04T01:25:55.472Z,58.74
2023-02-04T01:26:57.256Z,60.01
2023-02-04T01:27:59.061Z,61.42
2023-02-04T01:29:00.959Z,62.99
2023-02-04T01:30:04.653Z,64.55
2023-02-04T01:31:06.778Z,65.03
2023-02-04T01:32:08.732Z,64.48
2023-02-04T01:33:11.004Z,63.52
2023-02-04T01:34:12.954Z,62.42
2023-02-04T01:35:14.837Z,61.42
2023-02-04T01:36:21.777Z,60.39
2023-02-04T01:37:23.783Z,59.55
2023-02-04T01:38:27.065Z,58.69
2023-02-04T01:39:28.810Z,58.24
2023-02-04T01:40:32.042Z,58.88
2023-02-04T01:41:34.078Z,60.09
2023-02-04T01:42:36.134Z,61.60
2023-02-04T01:43:38.127Z,63.20
2023-02-04T01:44:40.429Z,64.68
2023-02-04T01:45:43.461Z,65.05
2023-02-04T01:46:46.486Z,64.47
2023-02-04T01:47:48.872Z,63.50
2023-02-04T01:48:51.075Z,62.38
2023-02-04T01:49:55.997Z,61.37
2023-02-04T01:51:05.197Z,60.46
2023-02-04T01:52:07.670Z,59.68
2023-02-04T01:53:09.574Z,58.87
2023-02-04T01:54:15.283Z,58.21
2023-02-04T01:55:20.544Z,58.72
2023-02-04T01:56:26.738Z,59.90
2023-02-04T01:57:30.938Z,61.77
2023-02-04T01:58:33.532Z,63.52
2023-02-04T01:59:35.732Z,64.92
2023-02-04T02:00:40.123Z,65.10
2023-02-04T02:01:45.470Z,64.47
2023-02-04T02:02:50.786Z,63.34
2023-02-04T02:03:54.231Z,62.20
2023-02-04T02:04:57.287Z,61.18
2023-02-04T02:06:00.792Z,60.28
2023-02-04T02:07:06.401Z,59.54
2023-02-04T02:08:11.111Z,58.68
2023-02-04T02:09:13.389Z,58.11
2023-02-04T02:10:18.305Z,58.83
2023-02-04T02:11:20.644Z,60.26
2023-02-04T02:12:22.928Z,61.88
2023-02-04T02:13:24.873Z,63.53
2023-02-04T02:14:27.348Z,64.93
2023-02-04T02:15:29.779Z,65.23
2023-02-04T02:16:32.351Z,64.57
2023-02-04T02:17:34.232Z,63.42
2023-02-04T02:18:36.620Z,62.40
2023-02-04T02:19:41.525Z,61.42
2023-02-04T02:20:45.475Z,60.55
2023-02-04T02:22:27.277Z,59.80
2023-02-04T02:23:49.631Z,58.51
2023-02-04T02:24:51.434Z,58.29
2023-02-04T02:25:54.301Z,59.16
2023-02-04T02:27:00.313Z,60.75
2023-02-04T02:28:07.498Z,62.45
2023-02-04T02:29:09.463Z,64.42
2023-02-04T02:30:17.848Z,65.56
2023-02-04T02:31:22.805Z,65.59
2023-02-04T02:32:25.832Z,64.50
2023-02-04T02:33:28.331Z,63.30
2023-02-04T02:34:31.136Z,62.24
2023-02-04T02:35:33.435Z,61.19
2023-02-04T02:36:35.627Z,60.26
2023-02-04T02:37:37.754Z,59.48
2023-02-04T02:38:41.844Z,58.54
2023-02-04T02:39:46.257Z,58.21
2023-02-04T02:40:49.913Z,59.04
2023-02-04T02:41:52.139Z,60.34
2023-02-04T02:42:55.340Z,62.05
2023-02-04T02:43:57.386Z,63.82
2023-02-04T02:45:03.503Z,65.02
2023-02-04T02:46:06.904Z,65.09
2023-02-04T02:47:15.407Z,64.38
2023-02-04T02:48:18.215Z,63.41
2023-02-04T02:49:21.334Z,62.21
2023-02-04T02:50:26.840Z,61.30
2023-02-04T02:51:29.883Z,60.35
2023-02-04T02:52:32.154Z,59.62
2023-02-04T02:53:34.181Z,58.84
2023-02-04T02:54:36.855Z,58.12
2023-02-04T02:55:40.154Z,58.66
2023-02-04T02:56:42.084Z,59.98
2023-02-04T02:57:49.534Z,61.37
2023-02-04T02:58:51.428Z,63.11
2023-02-04T02:59:53.533Z,64.79
2023-02-04T03:00:57.843Z,65.35
2023-02-04T03:02:03.700Z,64.92
2023-02-04T03:03:18.326Z,63.95
2023-02-04T03:04:22.900Z,62.97
2023-02-04T03:05:26.767Z,62.00
2023-02-04T03:06:28.665Z,60.98
2023-02-04T03:07:30.800Z,60.19
2023-02-04T03:08:33.791Z,59.59
2023-02-04T03:09:36.957Z,58.82
2023-02-04T03:10:39.309Z,58.13
2023-02-04T03:11:41.566Z,58.71
2023-02-04T03:12:45.774Z,60.26
2023-02-04T03:13:49.847Z,61.92
2023-02-04T03:14:52.653Z,63.63
2023-02-04T03:15:56.423Z,64.85
2023-02-04T03:17:02.861Z,65.01
2023-02-04T03:18:05.136Z,64.27
2023-02-04T03:19:08.531Z,63.47
2023-02-04T03:20:13.309Z,62.56
2023-02-04T03:21:15.702Z,61.55
2023-02-04T03:22:17.684Z,60.60
2023-02-04T03:23:20.682Z,59.78
2023-02-04T03:24:23.237Z,59.10
2023-02-04T03:25:28.180Z,58.37
2023-02-04T03:26:32.377Z,58.77
2023-02-04T03:27:34.485Z,59.93
2023-02-04T03:28:41.924Z,61.34
2023-02-04T03:29:45.463Z,63.17
2023-02-04T03:30:53.885Z,64.82
2023-02-04T03:31:56.409Z,65.25
2023-02-04T03:32:58.616Z,64.69
2023-02-04T03:34:00.431Z,63.72
2023-02-04T03:35:02.184Z,62.57
2023-02-04T03:36:04.249Z,61.57
2023-02-04T03:37:06.210Z,60.71
2023-02-04T03:38:08.266Z,59.88
2023-02-04T03:39:10.064Z,59.03
2023-02-04T03:40:13.542Z,58.11
2023-02-04T03:41:15.476Z,58.30
2023-02-04T03:42:17.824Z,59.43
2023-02-04T03:43:19.837Z,61.06
2023-02-04T03:44:22.712Z,62.60
2023-02-04T03:45:25.051Z,64.23
2023-02-04T03:46:28.837Z,65.07
2023-02-04T03:47:31.206Z,64.74
2023-02-04T03:48:33.047Z,63.74
2023-02-04T03:49:36.175Z,62.63
2023-02-04T03:50:38.061Z,61.57
2023-02-04T03:51:40.000Z,60.58
2023-02-04T03:52:41.943Z,59.71
2023-02-04T03:53:43.885Z,58.79
2023-02-04T03:54:46.418Z,57.99
2023-02-04T03:55:48.306Z,58.39
2023-02-04T03:56:50.216Z,59.69
2023-02-04T03:57:53.525Z,61.13
2023-02-04T03:58:55.704Z,62.65
2023-02-04T03:59:57.670Z,64.40
2023-02-04T04:00:59.633Z,65.32
2023-02-04T04:02:01.638Z,65.02
2023-02-04T04:03:03.738Z,64.10
2023-02-04T04:04:05.678Z,62.99
2023-02-04T04:05:08.958Z,61.86
2023-02-04T04:06:11.266Z,60.85
2023-02-04T04:07:13.304Z,59.95
2023-02-04T04:08:15.558Z,59.14
2023-02-04T04:09:17.513Z,58.17
2023-02-04T04:10:19.553Z,58.25
2023-02-04T04:11:22.083Z,59.11
2023-02-04T04:12:23.957Z,60.58
2023-02-04T04:13:26.055Z,62.12
2023-02-04T04:14:28.036Z,63.69
2023-02-04T04:15:30.833Z,64.83
2023-02-04T04:16:32.666Z,64.87
2023-02-04T04:17:34.440Z,64.10
2023-02-04T04:18:36.422Z,62.95
2023-02-04T04:19:38.324Z,61.82
2023-02-04T04:20:40.175Z,60.76
2023-02-04T04:21:41.977Z,59.85
2023-02-04T04:22:45.654Z,58.92
2023-02-04T04:23:47.970Z,58.00
2023-02-04T04:24:49.783Z,58.22
2023-02-04T04:25:51.573Z,59.18
2023-02-04T04:26:53.349Z,60.64
2023-02-04T04:27:55.467Z,62.24
2023-02-04T04:28:57.453Z,63.83
2023-02-04T04:29:59.578Z,64.87
2023-02-04T04:31:01.707Z,64.72
2023-02-04T04:32:05.309Z,63.83
2023-02-04T04:33:07.334Z,62.67
2023-02-04T04:34:09.318Z,61.65
2023-02-04T04:35:11.310Z,60.56
2023-02-04T04:36:14.914Z,59.64
2023-02-04T04:37:17.099Z,58.65
2023-02-04T04:38:18.895Z,57.88
2023-02-04T04:39:20.846Z,58.13
2023-02-04T04:40:22.718Z,59.27
2023-02-04T04:41:24.526Z,60.77
2023-02-04T04:42:26.380Z,62.37
2023-02-04T04:43:28.281Z,64.03
2023-02-04T04:44:30.345Z,65.00
2023-02-04T04:45:32.286Z,64.83
2023-02-04T04:46:34.335Z,63.91
2023-02-04T04:47:36.247Z,62.74
2023-02-04T04:48:38.382Z,61.58
2023-02-04T04:49:40.346Z,60.49
2023-02-04T04:50:42.552Z,59.65
2023-02-04T04:51:44.588Z,58.62
2023-02-04T04:52:46.621Z,57.83
2023-02-04T04:53:48.828Z,58.18
2023-02-04T04:54:50.973Z,59.21
2023-02-04T04:55:53.226Z,60.61
2023-02-04T04:56:55.795Z,62.25
2023-02-04T04:57:57.817Z,63.83
2023-02-04T04:58:59.803Z,64.87
2023-02-04T05:00:01.988Z,64.75
2023-02-04T05:01:04.240Z,63.85
2023-02-04T05:02:06.086Z,62.82
2023-02-04T05:03:07.951Z,61.62
2023-02-04T05:04:09.730Z,60.52
2023-02-04T05:05:13.324Z,59.60
2023-02-04T05:06:15.986Z,58.52
2023-02-04T05:07:17.885Z,57.90
2023-02-04T05:08:20.958Z,58.40
2023-02-04T05:09:23.043Z,59.54
2023-02-04T05:10:25.309Z,60.92
2023-02-04T05:11:27.173Z,62.40
2023-02-04T05:12:29.047Z,63.75
2023-02-04T05:13:30.985Z,64.78
2023-02-04T05:14:33.016Z,64.64
2023-02-04T05:15:35.789Z,63.74
2023-02-04T05:16:37.766Z,62.53
2023-02-04T05:17:39.940Z,61.31
2023-02-04T05:18:42.221Z,60.25
2023-02-04T05:19:44.099Z,59.24
2023-02-04T05:20:45.968Z,58.10
2023-02-04T05:21:47.705Z,57.76
2023-02-04T05:22:49.705Z,58.64
2023-02-04T05:23:51.657Z,59.96
2023-02-04T05:24:53.663Z,61.36
2023-02-04T05:25:55.709Z,62.83
2023-02-04T05:26:58.195Z,64.33
2023-02-04T05:28:00.068Z,64.92
2023-02-04T05:29:02.208Z,64.41
2023-02-04T05:30:04.571Z,63.35
2023-02-04T05:31:06.589Z,62.12
2023-02-04T05:32:08.549Z,60.96
2023-02-04T05:33:10.620Z,59.96
2023-02-04T05:34:12.789Z,58.91
2023-02-04T05:35:14.799Z,57.84
2023-02-04T05:36:17.801Z,57.82
2023-02-04T05:37:21.036Z,58.84
2023-02-04T05:38:22.972Z,60.25
2023-02-04T05:39:24.736Z,61.69
2023-02-04T05:40:26.705Z,63.09
2023-02-04T05:41:28.695Z,64.56
2023-02-04T05:42:30.582Z,64.90
2023-02-04T05:43:32.466Z,64.28
2023-02-04T05:44:34.457Z,63.19
2023-02-04T05:45:36.309Z,61.97
2023-02-04T05:46:39.284Z,60.81
2023-02-04T05:47:41.393Z,59.86
2023-02-04T05:48:43.509Z,58.87
2023-02-04T05:49:45.333Z,57.82
2023-02-04T05:50:47.220Z,57.80
2023-02-04T05:51:49.040Z,58.78
2023-02-04T05:52:51.193Z,60.18
2023-02-04T05:53:53.243Z,61.68
2023-02-04T05:54:55.556Z,63.24
2023-02-04T05:55:57.486Z,64.50
2023-02-04T05:56:59.372Z,64.75
2023-02-04T05:58:01.228Z,64.04
2023-02-04T05:59:03.358Z,62.92
2023-02-04T06:00:06.764Z,61.71
2023-02-04T06:01:14.516Z,60.50
2023-02-04T06:02:16.484Z,59.55
2023-02-04T06:03:19.560Z,58.37
2023-02-04T06:04:21.608Z,57.65
2023-02-04T06:05:23.556Z,58.17
2023-02-04T06:06:25.401Z,59.34
2023-02-04T06:07:27.207Z,60.61
2023-02-04T06:08:29.268Z,62.02
2023-02-04T06:09:31.197Z,63.46
2023-02-04T06:10:33.303Z,64.60
2023-02-04T06:11:35.544Z,64.57
2023-02-04T06:12:37.657Z,63.69
2023-02-04T06:13:39.599Z,62.52
2023-02-04T06:14:41.459Z,61.26
2023-02-04T06:15:43.338Z,60.21
2023-02-04T06:16:45.229Z,59.01
2023-02-04T06:17:47.625Z,57.83
2023-02-04T06:18:49.678Z,57.69
2023-02-04T06:19:52.497Z,58.64
2023-02-04T06:20:54.285Z,59.80
2023-02-04T06:21:56.324Z,61.12
2023-02-04T06:22:58.145Z,62.55
2023-02-04T06:23:59.957Z,64.07
2023-02-04T06:25:02.715Z,64.83
2023-02-04T06:26:05.043Z,64.45
2023-02-04T06:27:07.007Z,63.41
2023-02-04T06:28:08.817Z,62.19
2023-02-04T06:29:10.779Z,61.02
2023-02-04T06:30:14.179Z,59.92
2023-02-04T06:31:16.121Z,58.87
2023-02-04T06:32:18.870Z,57.79
2023-02-04T06:33:21.420Z,57.76
2023-02-04T06:34:23.074Z,58.64
2023-02-04T06:35:25.114Z,59.99
2023-02-04T06:36:26.997Z,61.43
2023-02-04T06:37:29.039Z,62.83
2023-02-04T06:38:30.930Z,64.13
2023-02-04T06:39:32.803Z,64.58
2023-02-04T06:40:34.878Z,63.98
2023-02-04T06:41:36.770Z,62.78
2023-02-04T06:42:38.641Z,61.44
2023-02-04T06:43:40.434Z,60.18
2023-02-04T06:44:42.356Z,59.04
2023-02-04T06:45:44.256Z,57.74
2023-02-04T06:46:46.135Z,57.42
2023-02-04T06:47:47.891Z,58.02
2023-02-04T06:48:49.791Z,59.18
2023-02-04T06:49:51.639Z,60.43
2023-02-04T06:50:53.766Z,61.80
2023-02-04T06:51:55.817Z,63.19
2023-02-04T06:52:57.655Z,64.46
2023-02-04T06:53:59.554Z,64.63
2023-02-04T06:55:01.812Z,63.85
2023-02-04T06:56:03.655Z,62.65
2023-02-04T06:57:08.337Z,61.34
2023-02-04T06:58:10.105Z,60.10
2023-02-04T06:59:11.975Z,59.01
2023-02-04T07:00:14.164Z,57.71
2023-02-04T07:01:16.055Z,57.44
2023-02-04T07:02:18.272Z,58.33
2023-02-04T07:03:20.381Z,59.61
2023-02-04T07:04:22.373Z,60.90
2023-02-04T07:05:24.830Z,62.19
2023-02-04T07:06:26.694Z,63.63
2023-02-04T07:07:28.681Z,64.55
2023-02-04T07:08:30.658Z,64.31
2023-02-04T07:09:32.623Z,63.27
2023-02-04T07:10:35.050Z,61.99
2023-02-04T07:11:37.204Z,60.64
2023-02-04T07:12:39.035Z,59.48
2023-02-04T07:13:40.990Z,58.09
2023-02-04T07:14:42.803Z,57.34
2023-02-04T07:15:44.752Z,57.76
2023-02-04T07:16:46.846Z,58.84
2023-02-04T07:17:48.922Z,60.06
2023-02-04T07:18:50.748Z,61.37
2023-02-04T07:19:53.109Z,62.68
2023-02-04T07:20:55.431Z,64.00
2023-02-04T07:21:57.507Z,64.47
2023-02-04T07:22:59.293Z,63.84
2023-02-04T07:24:01.352Z,62.67
2023-02-04T07:25:03.392Z,61.37
2023-02-04T07:26:05.634Z,60.15
2023-02-04T07:27:07.541Z,58.99
2023-02-04T07:28:09.447Z,57.68
2023-02-04T07:29:17.465Z,57.33
2023-02-04T07:30:22.571Z,58.29
2023-02-04T07:31:24.462Z,59.56
2023-02-04T07:32:27.982Z,60.74
2023-02-04T07:33:29.977Z,61.96
2023-02-04T07:34:31.919Z,63.22
2023-02-04T07:35:33.867Z,64.32
2023-02-04T07:36:35.672Z,64.29
2023-02-04T07:37:37.594Z,63.37
2023-02-04T07:38:39.406Z,62.14
2023-02-04T07:39:41.545Z,60.80
2023-02-04T07:40:43.723Z,59.58
2023-02-04T07:41:45.967Z,58.23
2023-02-04T07:42:48.266Z,57.29
2023-02-04T07:43:51.619Z,57.62
2023-02-04T07:44:53.393Z,58.54
2023-02-04T07:45:55.684Z,59.63
2023-02-04T07:46:57.867Z,60.89
2023-02-04T07:47:59.826Z,62.02
2023-02-04T07:49:02.198Z,62.88
2023-02-04T07:50:04.298Z,64.23
2023-02-04T07:51:10.562Z,64.58
2023-02-04T07:52:12.364Z,63.80
2023-02-04T07:53:14.512Z,62.58
2023-02-04T07:54:16.473Z,61.28
2023-02-04T07:55:18.391Z,59.85
2023-02-04T07:56:20.458Z,58.45
2023-02-04T07:57:22.297Z,57.19
2023-02-04T07:58:24.219Z,57.22
2023-02-04T07:59:26.089Z,58.09
2023-02-04T08:00:28.157Z,59.29
2023-02-04T08:01:30.271Z,60.52
2023-02-04T08:02:32.250Z,61.74
2023-02-04T08:03:34.151Z,62.95
2023-02-04T08:04:36.165Z,64.13
2023-02-04T08:05:38.078Z,64.33
2023-02-04T08:06:39.954Z,63.49
2023-02-04T08:07:42.140Z,62.14
2023-02-04T08:08:44.248Z,60.76
2023-02-04T08:09:47.044Z,59.43
2023-02-04T08:10:49.026Z,57.90
2023-02-04T08:11:50.880Z,57.21
2023-02-04T08:12:52.681Z,57.51
2023-02-04T08:13:55.012Z,58.27
2023-02-04T08:14:57.631Z,59.51
2023-02-04T08:15:59.507Z,60.74
2023-02-04T08:17:01.363Z,61.98
2023-02-04T08:18:03.654Z,63.23
2023-02-04T08:19:05.387Z,64.15
2023-02-04T08:20:07.943Z,63.95
2023-02-04T08:21:09.686Z,63.01
2023-02-04T08:22:12.280Z,61.63
2023-02-04T08:23:14.227Z,60.31
2023-02-04T08:24:16.703Z,59.11
2023-02-04T08:25:18.572Z,57.68
2023-02-04T08:26:20.724Z,57.03
2023-02-04T08:27:22.606Z,57.65
2023-02-04T08:28:24.758Z,58.80
2023-02-04T08:29:26.557Z,60.00
2023-02-04T08:30:28.425Z,61.20
2023-02-04T08:31:30.806Z,62.44
2023-02-04T08:32:33.232Z,63.62
2023-02-04T08:33:35.205Z,64.13
2023-02-04T08:34:37.201Z,63.56
2023-02-04T08:35:39.150Z,62.41
2023-02-04T08:36:41.080Z,61.06
2023-02-04T08:37:42.964Z,59.56
2023-02-04T08:38:44.893Z,57.87
2023-02-04T08:39:47.474Z,56.79
2023-02-04T08:40:49.389Z,56.97
2023-02-04T08:41:51.368Z,57.91
2023-02-04T08:42:53.147Z,59.15
2023-02-04T08:43:55.547Z,60.38
2023-02-04T08:44:57.592Z,61.52
2023-02-04T08:45:59.379Z,62.55
2023-02-04T08:47:01.486Z,63.77
2023-02-04T08:48:03.330Z,64.31
2023-02-04T08:49:05.827Z,63.75
2023-02-04T08:50:10.827Z,62.41
2023-02-04T08:51:12.707Z,60.86
2023-02-04T08:52:14.510Z,59.43
2023-02-04T08:53:16.466Z,57.83
2023-02-04T08:54:18.768Z,57.04
2023-02-04T08:55:20.718Z,57.33
2023-02-04T08:56:22.613Z,58.10
2023-02-04T08:57:24.354Z,59.18
2023-02-04T08:58:26.151Z,60.43
2023-02-04T08:59:28.617Z,61.48
2023-02-04T09:00:31.331Z,62.55
2023-02-04T09:01:33.837Z,63.77
2023-02-04T09:02:35.657Z,64.28
2023-02-04T09:03:38.647Z,63.60
2023-02-04T09:04:40.811Z,62.27
2023-02-04T09:05:42.695Z,60.82
2023-02-04T09:06:45.518Z,59.49
2023-02-04T09:07:47.270Z,57.90
2023-02-04T09:08:49.305Z,56.77
2023-02-04T09:09:51.227Z,57.13
2023-02-04T09:10:53.002Z,58.04
2023-02-04T09:11:55.070Z,58.98
2023-02-04T09:12:57.524Z,60.17
2023-02-04T09:13:59.471Z,61.32
2023-02-04T09:15:01.268Z,62.32
2023-02-04T09:16:03.221Z,63.54
2023-02-04T09:17:05.863Z,64.36
2023-02-04T09:18:19.189Z,63.98
2023-02-04T09:19:25.501Z,62.54
2023-02-04T09:20:29.732Z,60.85
2023-02-04T09:21:32.135Z,59.37
2023-02-04T09:22:33.946Z,57.77
2023-02-04T09:23:35.843Z,56.86
2023-02-04T09:24:37.800Z,57.07
2023-02-04T09:25:40.809Z,57.95
2023-02-04T09:26:42.730Z,59.14
2023-02-04T09:27:44.576Z,60.23
2023-02-04T09:28:48.463Z,61.34
2023-02-04T09:29:50.364Z,62.48
2023-02-04T09:30:52.239Z,63.65
2023-02-04T09:31:54.284Z,63.99
2023-02-04T09:32:56.775Z,63.18
2023-02-04T09:34:00.085Z,61.87
2023-02-04T09:35:02.084Z,60.35
2023-02-04T09:36:04.853Z,59.00
2023-02-04T09:37:06.678Z,57.51
2023-02-04T09:38:08.568Z,56.96
2023-02-04T09:39:11.201Z,57.38
2023-02-04T09:40:18.698Z,58.36
2023-02-04T09:41:21.062Z,59.51
2023-02-04T09:42:26.419Z,60.48
2023-02-04T09:43:32.000Z,61.22
2023-02-04T09:44:33.868Z,62.05
2023-02-04T09:45:36.897Z,62.88
2023-02-04T09:46:39.012Z,63.55
2023-02-04T09:47:41.111Z,63.39
2023-02-04T09:48:42.996Z,61.96
2023-02-04T09:49:47.000Z,60.40
2023-02-04T09:50:50.893Z,59.13
2023-02-04T09:51:54.424Z,57.41
2023-02-04T09:53:00.643Z,56.74
2023-02-04T09:54:13.357Z,57.05
2023-02-04T09:55:18.023Z,57.75
2023-02-04T09:56:20.715Z,58.23
2023-02-04T09:57:22.727Z,59.31
2023-02-04T09:58:31.454Z,60.42
2023-02-04T09:59:33.404Z,61.37
2023-02-04T10:00:35.403Z,62.32
2023-02-04T10:01:37.636Z,63.17
2023-02-04T10:02:39.700Z,63.55
2023-02-04T10:03:46.931Z,62.84
2023-02-04T10:04:51.851Z,61.09
2023-02-04T10:05:53.945Z,59.46
2023-02-04T10:07:00.672Z,57.62
2023-02-04T10:08:05.608Z,56.42
2023-02-04T10:09:12.310Z,56.59
2023-02-04T10:10:18.630Z,57.36
2023-02-04T10:11:23.910Z,58.39
2023-02-04T10:12:26.065Z,59.45
2023-02-04T10:13:36.483Z,60.38
2023-02-04T10:14:38.929Z,61.33
2023-02-04T10:15:40.922Z,62.21
2023-02-04T10:16:48.711Z,63.30
2023-02-04T10:18:01.715Z,64.16
2023-02-04T10:19:07.665Z,63.51
2023-02-04T10:20:20.987Z,61.90
2023-02-04T10:21:32.202Z,59.91
2023-02-04T10:22:40.397Z,57.79
2023-02-04T10:23:45.495Z,56.23
2023-02-04T10:24:47.636Z,56.21
2023-02-04T10:25:49.496Z,56.98
2023-02-04T10:26:52.738Z,57.92
2023-02-04T10:28:00.800Z,58.94
2023-02-04T10:29:07.407Z,60.07
2023-02-04T10:30:19.672Z,60.99
2023-02-04T10:31:29.372Z,61.82
2023-02-04T10:32:33.915Z,62.50
2023-02-04T10:33:37.534Z,63.47
2023-02-04T10:34:40.124Z,63.80
2023-02-04T10:35:47.234Z,63.10
2023-02-04T10:36:52.696Z,61.22
2023-02-04T10:38:07.010Z,59.30
2023-02-04T10:39:18.199Z,57.46
2023-02-04T10:40:27.548Z,56.80
2023-02-04T10:41:29.759Z,57.20
2023-02-04T10:42:32.494Z,57.82
2023-02-04T10:43:34.462Z,58.62
2023-02-04T10:44:36.489Z,59.38
2023-02-04T10:45:38.859Z,60.24
2023-02-04T10:46:40.856Z,60.85
2023-02-04T10:47:51.444Z,61.28
2023-02-04T10:48:53.365Z,61.66
2023-02-04T10:50:00.660Z,61.88
2023-02-04T10:51:02.523Z,62.40
2023-02-04T10:52:16.630Z,63.30
2023-02-04T10:53:41.224Z,63.80
2023-02-04T10:54:44.064Z,62.13
2023-02-04T10:55:48.377Z,60.45
2023-02-04T10:56:50.330Z,58.76
2023-02-04T10:57:53.692Z,56.86
2023-02-04T10:58:56.258Z,56.05
2023-02-04T11:00:02.134Z,56.33
2023-02-04T11:01:09.228Z,57.20
2023-02-04T11:02:30.043Z,58.33
2023-02-04T11:03:32.015Z,59.55
2023-02-04T11:04:34.089Z,60.38
2023-02-04T11:05:36.512Z,60.98
2023-02-04T11:06:38.373Z,61.47
2023-02-04T11:07:40.267Z,62.11
2023-02-04T11:08:42.854Z,62.60
2023-02-04T11:09:44.939Z,63.28
2023-02-04T11:10:50.077Z,63.37
2023-02-04T11:11:52.292Z,62.34
2023-02-04T11:12:54.064Z,60.76
2023-02-04T11:13:56.085Z,58.90
2023-02-04T11:14:58.633Z,56.93
2023-02-04T11:16:24.354Z,56.04
2023-02-04T11:17:34.346Z,56.26
2023-02-04T11:18:50.297Z,57.08
2023-02-04T11:19:52.062Z,57.91
2023-02-04T11:20:59.666Z,58.81
2023-02-04T11:22:22.819Z,59.76
2023-02-04T11:23:27.429Z,61.15
2023-02-04T11:24:34.597Z,61.68
2023-02-04T11:25:39.659Z,62.10
2023-02-04T11:26:47.689Z,62.37
2023-02-04T11:27:49.476Z,62.96
2023-02-04T11:29:00.375Z,63.16
2023-02-04T11:30:21.620Z,62.20
2023-02-04T11:31:23.695Z,60.51
2023-02-04T11:32:36.225Z,59.05
2023-02-04T11:33:41.500Z,56.83
2023-02-04T11:34:55.892Z,55.71
2023-02-04T11:36:06.849Z,55.97
2023-02-04T11:37:34.732Z,57.27
2023-02-04T11:38:38.638Z,58.56
2023-02-04T11:39:47.265Z,58.91
2023-02-04T11:40:57.346Z,59.59
2023-02-04T11:42:00.732Z,60.38
2023-02-04T11:43:11.058Z,61.07
2023-02-04T11:44:15.378Z,61.65
2023-02-04T11:45:24.073Z,61.90
2023-02-04T11:46:29.468Z,62.11
2023-02-04T11:47:37.631Z,62.79
2023-02-04T11:48:40.017Z,63.81
2023-02-04T11:49:42.210Z,63.67
2023-02-04T11:50:56.087Z,62.65
2023-02-04T11:52:08.965Z,60.74
2023-02-04T11:53:12.350Z,58.42
2023-02-04T11:54:19.145Z,56.57
2023-02-04T11:55:21.341Z,56.23
2023-02-04T11:56:23.848Z,56.76
2023-02-04T11:57:27.030Z,57.73
2023-02-04T11:58:31.404Z,58.77
2023-02-04T11:59:33.331Z,59.84
2023-02-04T12:00:35.223Z,60.49
2023-02-04T12:01:37.171Z,61.11
2023-02-04T12:02:49.131Z,61.83
2023-02-04T12:03:59.569Z,62.80
2023-02-04T12:05:14.677Z,63.69
2023-02-04T12:06:28.254Z,63.32
2023-02-04T12:07:30.438Z,61.92
2023-02-04T12:08:36.241Z,60.51
2023-02-04T12:09:49.138Z,58.77
2023-02-04T12:11:00.209Z,56.74
2023-02-04T12:12:03.925Z,56.40
2023-02-04T12:13:16.885Z,57.14
2023-02-04T12:14:19.550Z,58.00
2023-02-04T12:15:36.701Z,58.82
2023-02-04T12:16:48.718Z,60.14
2023-02-04T12:18:07.366Z,61.20
2023-02-04T12:19:09.091Z,62.15
2023-02-04T12:20:14.172Z,63.06
2023-02-04T12:21:18.785Z,63.89
2023-02-04T12:22:20.759Z,63.56
2023-02-04T12:23:24.087Z,62.43
2023-02-04T12:24:25.887Z,60.90
2023-02-04T12:25:27.947Z,59.41
2023-02-04T12:26:29.808Z,57.66
2023-02-04T12:27:31.572Z,56.52
2023-02-04T12:28:33.427Z,56.72
2023-02-04T12:29:35.752Z,57.52
2023-02-04T12:30:37.670Z,58.42
2023-02-04T12:31:39.643Z,59.37
2023-02-04T12:32:41.447Z,60.35
2023-02-04T12:33:43.206Z,61.07
2023-02-04T12:34:45.132Z,61.75
2023-02-04T12:35:46.850Z,62.48
2023-02-04T12:36:48.807Z,63.37
2023-02-04T12:37:51.309Z,63.78
2023-02-04T12:38:58.962Z,63.15
2023-02-04T12:40:01.022Z,61.78
2023-02-04T12:41:03.100Z,60.32
2023-02-04T12:42:05.148Z,58.54
2023-02-04T12:43:08.125Z,56.70
2023-02-04T12:44:10.215Z,56.28
2023-02-04T12:45:14.904Z,56.89
2023-02-04T12:46:17.938Z,57.78
2023-02-04T12:47:19.969Z,58.80
2023-02-04T12:48:21.995Z,59.81
2023-02-04T12:49:24.446Z,60.80
2023-02-04T12:50:26.832Z,61.84
2023-02-04T12:51:28.711Z,62.76
2023-02-04T12:52:30.560Z,63.74
2023-02-04T12:53:32.486Z,63.86
2023-02-04T12:54:34.615Z,62.90
2023-02-04T12:55:37.032Z,61.41
2023-02-04T12:56:38.919Z,59.96
2023-02-04T12:57:41.016Z,58.48
2023-02-04T12:58:42.953Z,57.07
2023-02-04T12:59:44.888Z,56.81
2023-02-04T13:00:46.992Z,57.43
2023-02-04T13:01:48.924Z,58.30
2023-02-04T13:02:51.253Z,59.28
2023-02-04T13:03:52.973Z,60.06
2023-02-04T13:04:56.966Z,60.69
2023-02-04T13:05:59.596Z,61.34
2023-02-04T13:07:03.617Z,61.93
2023-02-04T13:08:05.709Z,62.55
2023-02-04T13:09:07.550Z,63.45
2023-02-04T13:10:12.507Z,63.70
2023-02-04T13:11:14.588Z,62.84
2023-02-04T13:12:16.737Z,61.38
2023-02-04T13:13:19.727Z,60.04
2023-02-04T13:14:21.838Z,58.43
2023-02-04T13:15:23.816Z,56.83
2023-02-04T13:16:26.835Z,56.64
2023-02-04T13:17:28.791Z,57.41
2023-02-04T13:18:30.640Z,58.20
2023-02-04T13:19:32.827Z,59.03
2023-02-04T13:20:34.770Z,60.03
2023-02-04T13:21:36.608Z,61.14
2023-02-04T13:22:38.730Z,62.04
2023-02-04T13:23:40.843Z,62.94
2023-02-04T13:24:43.193Z,63.85
2023-02-04T13:25:45.388Z,63.64
2023-02-04T13:26:47.353Z,62.62
2023-02-04T13:27:49.432Z,60.84
2023-02-04T13:28:51.286Z,59.40
2023-02-04T13:29:53.517Z,57.48
2023-02-04T13:30:55.410Z,56.50
2023-02-04T13:31:57.643Z,56.57
2023-02-04T13:32:59.672Z,57.36
2023-02-04T13:34:01.741Z,58.28
2023-02-04T13:35:03.772Z,59.20
2023-02-04T13:36:06.160Z,59.91